Time;durP1;ratioP1;P1;durP2;ratioP2;P2;SDS_P1;SDS_P2;PMS_P1;PMS_P2;Temp;Humidity;BMP_temperature;BMP_pressure;BME280_temperature;BME280_humidity;BME280_pressure;Samples;Min_cycle;Max_cycle;Signal;HPM_P1;HPM_P2
2024/02/18 00:01:45;;;;;;;3.40;3.10;;;;;;;;;;6194866;23;20196;-79
2024/02/18 00:04:12;;;;;;;3.67;3.30;;;;;;;;;;6220695;23;20201;-79
2024/02/18 00:06:43;;;;;;;3.43;3.10;;;;;;;;;;6220863;23;20207;-79
2024/02/18 00:09:10;;;;;;;4.27;3.40;;;;;;;;;;6220454;23;20165;-79
2024/02/18 00:11:40;;;;;;;4.20;3.80;;;;;;;;;;6247144;23;20185;-79
2024/02/18 00:14:07;;;;;;;4.40;3.90;;;;;;;;;;6247132;23;20162;-79
2024/02/18 00:16:34;;;;;;;4.40;3.70;;;;;;;;;;6247432;23;20216;-80
2024/02/18 00:19:01;;;;;;;4.03;3.47;;;;;;;;;;6247278;23;20172;-79
2024/02/18 00:21:31;;;;;;;4.03;3.73;;;;;;;;;;6247096;23;20161;-79
2024/02/18 00:24:08;;;;;;;4.20;3.80;;;;;;;;;;6220488;23;20165;-79
2024/02/18 00:26:38;;;;;;;3.83;3.53;;;;;;;;;;6220464;23;20151;-79
2024/02/18 00:29:23;;;;;;;4.20;3.83;;;;;;;;;;6247389;22;20209;-79
2024/02/18 00:31:52;;;;;;;4.00;3.70;;;;;;;;;;6247110;23;20636;-79
2024/02/18 00:34:22;;;;;;;3.97;3.60;;;;;;;;;;6220266;23;20507;-79
2024/02/18 00:36:52;;;;;;;5.27;3.80;;;;;;;;;;6219825;23;20168;-79
2024/02/18 00:39:21;;;;;;;4.17;3.80;;;;;;;;;;6247056;23;20215;-79
2024/02/18 00:41:47;;;;;;;4.20;3.73;;;;;;;;;;6247083;23;20235;-79
2024/02/18 00:44:14;;;;;;;4.47;4.00;;;;;;;;;;6246975;23;20184;-79
2024/02/18 00:46:51;;;;;;;4.50;4.10;;;;;;;;;;6222468;23;20665;-79
2024/02/18 00:49:32;;;;;;;4.20;3.80;;;;;;;;;;6246957;23;20157;-79
2024/02/18 00:52:01;;;;;;;4.27;3.87;;;;;;;;;;6195609;23;20173;-79
2024/02/18 00:54:34;;;;;;;4.20;3.80;;;;;;;;;;6220527;23;20175;-79
2024/02/18 00:57:08;;;;;;;4.90;4.40;;;;;;;;;;6246795;23;20142;-79
2024/02/18 00:59:40;;;;;;;5.30;4.53;;;;;;;;;;6247161;23;20153;-80
2024/02/18 01:02:07;;;;;;;5.23;4.53;;;;;;;;;;6246712;23;20209;-79
2024/02/18 01:04:45;;;;;;;5.30;4.43;;;;;;;;;;6219864;23;20175;-79
2024/02/18 01:07:11;;;;;;;4.40;4.00;;;;;;;;;;6245957;23;20608;-79
2024/02/18 01:09:41;;;;;;;4.70;4.27;;;;;;;;;;6246421;23;20187;-80
2024/02/18 01:12:08;;;;;;;4.80;4.37;;;;;;;;;;6246874;23;20236;-79
2024/02/18 01:14:36;;;;;;;4.63;4.10;;;;;;;;;;6246774;23;20635;-80
2024/02/18 01:17:03;;;;;;;4.87;4.10;;;;;;;;;;6246384;23;20169;-79
2024/02/18 01:19:32;;;;;;;4.77;4.27;;;;;;;;;;6246462;23;20180;-79
2024/02/18 01:22:00;;;;;;;4.80;4.40;;;;;;;;;;6220009;23;20600;-79
2024/02/18 01:24:29;;;;;;;4.93;4.50;;;;;;;;;;6220090;23;20167;-79
2024/02/18 01:26:57;;;;;;;4.70;4.30;;;;;;;;;;6246660;23;20163;-80
2024/02/18 01:29:26;;;;;;;4.63;4.23;;;;;;;;;;6235525;22;20192;-79
2024/02/18 01:31:56;;;;;;;4.30;3.90;;;;;;;;;;6164849;23;20176;-79
2024/02/18 01:34:24;;;;;;;4.60;4.20;;;;;;;;;;6216375;23;20181;-79
2024/02/18 01:36:51;;;;;;;4.67;4.27;;;;;;;;;;6190129;23;20158;-79
2024/02/18 01:39:18;;;;;;;5.00;4.50;;;;;;;;;;6216359;23;20189;-80
2024/02/18 01:41:44;;;;;;;4.97;4.57;;;;;;;;;;6216217;23;20168;-80
2024/02/18 01:44:11;;;;;;;4.97;4.47;;;;;;;;;;6215597;23;20228;-80
2024/02/18 01:46:38;;;;;;;4.67;4.27;;;;;;;;;;6216132;23;20162;-82
2024/02/18 01:49:08;;;;;;;4.70;4.30;;;;;;;;;;6216151;23;20165;-80
2024/02/18 01:51:35;;;;;;;4.60;4.20;;;;;;;;;;6189978;23;20260;-79
2024/02/18 01:54:06;;;;;;;5.20;4.60;;;;;;;;;;6190014;23;20172;-80
2024/02/18 01:56:35;;;;;;;4.47;4.07;;;;;;;;;;6189708;23;20232;-79
2024/02/18 01:59:02;;;;;;;4.80;4.40;;;;;;;;;;6189821;23;20197;-80
2024/02/18 02:01:30;;;;;;;4.57;4.17;;;;;;;;;;6189436;23;20177;-80
2024/02/18 02:03:59;;;;;;;4.60;4.20;;;;;;;;;;6165413;23;20176;-79
2024/02/18 02:06:28;;;;;;;5.17;4.67;;;;;;;;;;6216110;23;20161;-80
2024/02/18 02:09:01;;;;;;;4.77;4.30;;;;;;;;;;6189901;23;20249;-79
2024/02/18 02:11:30;;;;;;;4.37;3.97;;;;;;;;;;6190369;23;20203;-80
2024/02/18 02:13:57;;;;;;;4.00;3.70;;;;;;;;;;6189440;23;20612;-79
2024/02/18 02:16:26;;;;;;;5.20;4.70;;;;;;;;;;6215904;23;20177;-79
2024/02/18 02:18:52;;;;;;;4.70;4.30;;;;;;;;;;6190057;23;20177;-80
2024/02/18 02:21:19;;;;;;;4.83;4.33;;;;;;;;;;6191410;23;20639;-80
2024/02/18 02:23:50;;;;;;;5.83;5.30;;;;;;;;;;6218165;23;20162;-79
2024/02/18 02:26:24;;;;;;;5.43;4.93;;;;;;;;;;6191640;23;20193;-79
2024/02/18 02:29:03;;;;;;;5.30;4.80;;;;;;;;;;6166878;23;20225;-79
2024/02/18 02:31:31;;;;;;;6.27;5.10;;;;;;;;;;6218212;23;20272;-79
2024/02/18 02:33:58;;;;;;;5.70;5.20;;;;;;;;;;6191828;23;20165;-79
2024/02/18 02:36:30;;;;;;;5.70;5.20;;;;;;;;;;6218053;23;20154;-79
2024/02/18 02:39:11;;;;;;;5.90;5.40;;;;;;;;;;6167455;23;20173;-80
2024/02/18 02:41:38;;;;;;;7.53;5.80;;;;;;;;;;6192033;23;20169;-79
2024/02/18 02:44:08;;;;;;;6.23;5.63;;;;;;;;;;6192172;23;20196;-80
2024/02/18 02:46:35;;;;;;;6.23;5.67;;;;;;;;;;6191833;23;20640;-80
2024/02/18 02:49:04;;;;;;;6.23;5.37;;;;;;;;;;6191924;23;20174;-81
2024/02/18 02:51:34;;;;;;;6.80;6.10;;;;;;;;;;6192765;23;20166;-80
2024/02/18 02:54:04;;;;;;;6.77;6.17;;;;;;;;;;6191400;23;20256;-80
2024/02/18 02:56:31;;;;;;;6.97;6.33;;;;;;;;;;6166006;23;20227;-80
2024/02/18 02:58:59;;;;;;;6.70;6.03;;;;;;;;;;6191269;23;20169;-80
2024/02/18 03:01:29;;;;;;;7.30;6.47;;;;;;;;;;6191342;23;20176;-80
2024/02/18 03:03:58;;;;;;;6.47;5.87;;;;;;;;;;6218180;23;20166;-80
2024/02/18 03:06:25;;;;;;;7.20;6.37;;;;;;;;;;6191337;23;20165;-79
2024/02/18 03:08:57;;;;;;;6.00;5.50;;;;;;;;;;6217779;23;20154;-79
2024/02/18 03:11:25;;;;;;;6.57;5.80;;;;;;;;;;6166490;23;20291;-80
2024/02/18 03:13:57;;;;;;;6.20;5.60;;;;;;;;;;6218189;23;20142;-80
2024/02/18 03:16:24;;;;;;;6.83;6.07;;;;;;;;;;6217776;23;20193;-79
2024/02/18 03:18:55;;;;;;;6.00;5.40;;;;;;;;;;6217782;23;20166;-80
2024/02/18 03:21:24;;;;;;;5.80;5.30;;;;;;;;;;6217921;23;20162;-79
2024/02/18 03:23:53;;;;;;;5.83;5.23;;;;;;;;;;6217917;23;20166;-79
2024/02/18 03:26:20;;;;;;;5.60;5.10;;;;;;;;;;6217850;23;20240;-80
2024/02/18 03:28:50;;;;;;;6.70;6.10;;;;;;;;;;6220020;23;20168;-80
2024/02/18 03:31:17;;;;;;;6.47;5.87;;;;;;;;;;6247494;23;20173;-79
2024/02/18 03:33:56;;;;;;;6.53;5.90;;;;;;;;;;6244975;23;20173;-79
2024/02/18 03:36:23;;;;;;;6.23;5.63;;;;;;;;;;6221106;23;20153;-79
2024/02/18 03:38:50;;;;;;;6.83;6.23;;;;;;;;;;6248169;23;20223;-80
2024/02/18 03:41:23;;;;;;;6.43;5.83;;;;;;;;;;6248316;23;20173;-80
2024/02/18 03:43:50;;;;;;;6.73;6.03;;;;;;;;;;6221613;23;20211;-79
2024/02/18 03:46:17;;;;;;;6.77;6.17;;;;;;;;;;6221511;23;20161;-80
2024/02/18 03:48:43;;;;;;;7.73;7.03;;;;;;;;;;6247968;23;20175;-80
2024/02/18 03:51:12;;;;;;;7.80;7.03;;;;;;;;;;6248056;23;20264;-79
2024/02/18 03:53:39;;;;;;;7.50;6.83;;;;;;;;;;6247757;23;20169;-80
2024/02/18 03:56:07;;;;;;;8.03;7.23;;;;;;;;;;6220666;23;20200;-80
2024/02/18 03:58:38;;;;;;;8.23;7.43;;;;;;;;;;6222612;23;20149;-80
2024/02/18 04:01:10;;;;;;;7.73;7.03;;;;;;;;;;6220902;23;20627;-80
2024/02/18 04:03:38;;;;;;;7.90;7.10;;;;;;;;;;6220708;23;20642;-79
2024/02/18 04:06:06;;;;;;;7.53;6.77;;;;;;;;;;6220767;23;20196;-79
2024/02/18 04:08:34;;;;;;;6.87;6.17;;;;;;;;;;6247516;23;20157;-80
2024/02/18 04:11:04;;;;;;;7.90;7.10;;;;;;;;;;6247390;23;20276;-80
2024/02/18 04:13:34;;;;;;;6.63;5.93;;;;;;;;;;6247765;23;20168;-80
2024/02/18 04:16:03;;;;;;;7.80;7.00;;;;;;;;;;6220757;23;20191;-79
2024/02/18 04:18:30;;;;;;;7.03;6.33;;;;;;;;;;6247449;23;20248;-80
2024/02/18 04:21:06;;;;;;;7.07;6.20;;;;;;;;;;6220689;23;20153;-79
2024/02/18 04:23:33;;;;;;;7.30;6.50;;;;;;;;;;6220665;23;20177;-79
2024/02/18 04:26:01;;;;;;;7.90;7.17;;;;;;;;;;6247105;23;20184;-79
2024/02/18 04:28:29;;;;;;;7.50;6.80;;;;;;;;;;6247235;23;20168;-78
2024/02/18 04:30:56;;;;;;;7.67;6.87;;;;;;;;;;6220931;23;20267;-80
2024/02/18 04:33:26;;;;;;;7.97;7.17;;;;;;;;;;6195567;23;20177;-79
2024/02/18 04:35:55;;;;;;;9.67;7.13;;;;;;;;;;6247440;23;20156;-80
2024/02/18 04:38:22;;;;;;;7.83;7.07;;;;;;;;;;6220520;23;20173;-80
2024/02/18 04:40:51;;;;;;;7.97;7.00;;;;;;;;;;6220367;23;20219;-79
2024/02/18 04:43:18;;;;;;;9.03;7.40;;;;;;;;;;6246309;23;20236;-79
2024/02/18 04:45:49;;;;;;;8.40;7.43;;;;;;;;;;6247107;23;20164;-80
2024/02/18 04:48:20;;;;;;;9.33;8.00;;;;;;;;;;6221504;23;20228;-80
2024/02/18 04:50:47;;;;;;;9.00;8.10;;;;;;;;;;6220057;23;20523;-79
2024/02/18 04:53:20;;;;;;;9.47;7.87;;;;;;;;;;6247276;23;20176;-80
2024/02/18 04:55:46;;;;;;;8.37;7.57;;;;;;;;;;6220786;23;20168;-80
2024/02/18 04:58:16;;;;;;;7.77;6.97;;;;;;;;;;6247374;23;20236;-79
2024/02/18 05:00:53;;;;;;;8.50;7.53;;;;;;;;;;6248008;23;20353;-79
2024/02/18 05:03:21;;;;;;;7.93;6.90;;;;;;;;;;6221075;23;20240;-79
2024/02/18 05:05:48;;;;;;;7.40;6.63;;;;;;;;;;6196347;23;20165;-79
2024/02/18 05:08:17;;;;;;;7.23;6.40;;;;;;;;;;6248030;23;20215;-79
2024/02/18 05:10:47;;;;;;;7.57;6.60;;;;;;;;;;6221553;23;20232;-79
2024/02/18 05:13:16;;;;;;;7.30;6.60;;;;;;;;;;6248076;23;20161;-80
2024/02/18 05:15:46;;;;;;;6.43;5.90;;;;;;;;;;6247681;23;20165;-79
2024/02/18 05:18:13;;;;;;;6.80;6.10;;;;;;;;;;6248854;23;20165;-79
2024/02/18 05:20:39;;;;;;;7.07;6.20;;;;;;;;;;6222042;23;20173;-79
2024/02/18 05:23:06;;;;;;;5.73;5.23;;;;;;;;;;6248979;23;20161;-79
2024/02/18 05:25:33;;;;;;;6.00;5.40;;;;;;;;;;6222435;23;20239;-79
2024/02/18 05:28:00;;;;;;;5.63;5.03;;;;;;;;;;6249421;23;20165;-80
2024/02/18 05:30:28;;;;;;;5.70;5.20;;;;;;;;;;6225186;22;20197;-80
2024/02/18 05:32:56;;;;;;;5.60;5.10;;;;;;;;;;6217743;23;20244;-79
2024/02/18 05:35:23;;;;;;;5.70;5.10;;;;;;;;;;6190878;23;20162;-80
2024/02/18 05:37:54;;;;;;;7.10;4.90;;;;;;;;;;6217164;23;20181;-79
2024/02/18 05:40:23;;;;;;;5.70;5.20;;;;;;;;;;6217081;23;20166;-80
2024/02/18 05:42:51;;;;;;;5.60;5.10;;;;;;;;;;6190198;23;20216;-80
2024/02/18 05:45:23;;;;;;;5.50;5.00;;;;;;;;;;6216900;23;20204;-79
2024/02/18 05:47:52;;;;;;;6.97;4.80;;;;;;;;;;6191228;23;20193;-80
2024/02/18 05:50:23;;;;;;;5.70;5.17;;;;;;;;;;6190448;23;20177;-80
2024/02/18 05:52:58;;;;;;;5.00;4.60;;;;;;;;;;6189860;23;20161;-80
2024/02/18 05:55:27;;;;;;;6.00;5.50;;;;;;;;;;6216402;23;20165;-80
2024/02/18 05:57:54;;;;;;;5.63;5.13;;;;;;;;;;6216051;23;20162;-79
2024/02/18 06:00:24;;;;;;;5.10;4.70;;;;;;;;;;6216160;23;20162;-80
2024/02/18 06:02:51;;;;;;;6.87;6.20;;;;;;;;;;6190571;23;20236;-80
2024/02/18 06:05:22;;;;;;;5.90;5.30;;;;;;;;;;6165147;23;20220;-79
2024/02/18 06:07:50;;;;;;;5.40;4.90;;;;;;;;;;6216455;23;20152;-80
2024/02/18 06:10:19;;;;;;;6.20;5.20;;;;;;;;;;6216203;23;20159;-80
2024/02/18 06:12:47;;;;;;;5.70;4.90;;;;;;;;;;6189346;23;20186;-79
2024/02/18 06:15:16;;;;;;;5.43;4.93;;;;;;;;;;6189445;23;20167;-80
2024/02/18 06:17:43;;;;;;;6.50;5.10;;;;;;;;;;6216009;23;20245;-80
2024/02/18 06:20:13;;;;;;;5.03;4.60;;;;;;;;;;6189667;23;20162;-79
2024/02/18 06:22:40;;;;;;;5.40;4.90;;;;;;;;;;6190310;23;20177;-79
2024/02/18 06:25:07;;;;;;;4.97;4.57;;;;;;;;;;6216745;23;20173;-80
2024/02/18 06:27:35;;;;;;;5.10;4.60;;;;;;;;;;6216535;23;20158;-80
2024/02/18 06:30:05;;;;;;;4.70;4.30;;;;;;;;;;6207502;23;20201;-80
2024/02/18 06:32:31;;;;;;;4.50;4.20;;;;;;;;;;6179908;23;20196;-79
2024/02/18 06:34:58;;;;;;;5.20;4.70;;;;;;;;;;6246860;23;20161;-79
2024/02/18 06:37:27;;;;;;;5.33;4.47;;;;;;;;;;6246990;23;20249;-80
2024/02/18 06:39:58;;;;;;;4.40;4.00;;;;;;;;;;6220675;23;20341;-80
2024/02/18 06:42:25;;;;;;;4.83;4.40;;;;;;;;;;6246817;23;20337;-80
2024/02/18 06:44:52;;;;;;;4.90;4.40;;;;;;;;;;6246787;23;20157;-79
2024/02/18 06:47:21;;;;;;;5.23;4.70;;;;;;;;;;6194913;23;20162;-79
2024/02/18 06:49:50;;;;;;;4.57;4.17;;;;;;;;;;6247328;23;20161;-80
2024/02/18 06:52:18;;;;;;;4.57;4.17;;;;;;;;;;6246784;23;20635;-80
2024/02/18 06:54:45;;;;;;;4.53;4.13;;;;;;;;;;6219691;23;20191;-80
2024/02/18 06:57:14;;;;;;;4.73;4.20;;;;;;;;;;6246634;23;20149;-79
2024/02/18 06:59:44;;;;;;;4.93;4.43;;;;;;;;;;6246759;23;20150;-80
2024/02/18 07:02:13;;;;;;;4.73;4.30;;;;;;;;;;6220745;23;20157;-79
2024/02/18 07:04:43;;;;;;;4.70;4.23;;;;;;;;;;6219797;23;20161;-80
2024/02/18 07:07:12;;;;;;;5.33;4.30;;;;;;;;;;6248249;23;20161;-80
2024/02/18 07:09:47;;;;;;;5.10;4.60;;;;;;;;;;6248898;23;20177;-80
2024/02/18 07:12:15;;;;;;;5.60;5.10;;;;;;;;;;6221647;23;20218;-79
2024/02/18 07:14:49;;;;;;;5.63;5.10;;;;;;;;;;6249137;23;20171;-80
2024/02/18 07:17:22;;;;;;;4.60;4.20;;;;;;;;;;6196683;23;20165;-80
2024/02/18 07:19:53;;;;;;;4.37;3.97;;;;;;;;;;6223712;23;20152;-80
2024/02/18 07:22:24;;;;;;;5.13;4.10;;;;;;;;;;6248426;23;20627;-80
2024/02/18 07:24:51;;;;;;;5.23;4.20;;;;;;;;;;6222109;23;20232;-80
2024/02/18 07:27:21;;;;;;;4.63;4.10;;;;;;;;;;6197304;23;20165;-80
2024/02/18 07:29:51;;;;;;;4.60;4.20;;;;;;;;;;6233666;22;20198;-80
2024/02/18 07:32:19;;;;;;;4.43;4.03;;;;;;;;;;6217821;23;20182;-80
2024/02/18 07:34:57;;;;;;;4.53;4.13;;;;;;;;;;6191240;23;20176;-80
2024/02/18 07:37:24;;;;;;;4.53;4.00;;;;;;;;;;6218419;23;20220;-80
2024/02/18 07:39:50;;;;;;;4.40;3.73;;;;;;;;;;6218148;23;20197;-80
2024/02/18 07:42:17;;;;;;;5.57;3.93;;;;;;;;;;6218033;23;20209;-80
2024/02/18 07:44:46;;;;;;;4.10;3.67;;;;;;;;;;6191636;23;20197;-79
2024/02/18 07:47:13;;;;;;;4.60;4.17;;;;;;;;;;6192256;23;20201;-80
2024/02/18 07:49:41;;;;;;;4.30;3.83;;;;;;;;;;6191764;23;20177;-80
2024/02/18 07:52:14;;;;;;;4.03;3.60;;;;;;;;;;6218337;23;20181;-80
2024/02/18 07:54:44;;;;;;;3.80;3.40;;;;;;;;;;6191459;23;20169;-80
2024/02/18 07:57:14;;;;;;;5.00;4.20;;;;;;;;;;6218737;23;20157;-80
2024/02/18 07:59:44;;;;;;;5.27;4.10;;;;;;;;;;6217909;23;20623;-80
2024/02/18 08:02:17;;;;;;;4.80;4.00;;;;;;;;;;6192968;23;20213;-80
2024/02/18 08:04:44;;;;;;;4.53;3.97;;;;;;;;;;6167391;23;20244;-80
2024/02/18 08:07:16;;;;;;;4.10;3.67;;;;;;;;;;6218768;23;20196;-80
2024/02/18 08:09:46;;;;;;;3.60;3.23;;;;;;;;;;6218553;23;20217;-80
2024/02/18 08:12:16;;;;;;;4.00;3.60;;;;;;;;;;6191944;23;20181;-81
2024/02/18 08:14:43;;;;;;;4.23;3.73;;;;;;;;;;6218617;23;20241;-80
2024/02/18 08:17:17;;;;;;;4.80;3.77;;;;;;;;;;6191386;23;20618;-80
2024/02/18 08:19:46;;;;;;;3.50;3.20;;;;;;;;;;6218421;23;20150;-80
2024/02/18 08:22:17;;;;;;;3.63;3.33;;;;;;;;;;6192840;23;20154;-80
2024/02/18 08:24:46;;;;;;;4.10;3.70;;;;;;;;;;6192113;23;20166;-80
2024/02/18 08:27:22;;;;;;;3.57;3.27;;;;;;;;;;6192510;23;20255;-80
2024/02/18 08:29:49;;;;;;;3.70;3.03;;;;;;;;;;6208555;23;20273;-80
2024/02/18 08:32:16;;;;;;;4.13;3.83;;;;;;;;;;6221866;23;20193;-80
2024/02/18 08:34:45;;;;;;;4.10;3.70;;;;;;;;;;6221914;23;20173;-80
2024/02/18 08:37:13;;;;;;;2.77;2.53;;;;;;;;;;6221937;23;20161;-80
2024/02/18 08:39:43;;;;;;;3.60;3.30;;;;;;;;;;6248175;23;20597;-80
2024/02/18 08:42:10;;;;;;;3.40;3.10;;;;;;;;;;6198657;23;20172;-82
2024/02/18 08:44:42;;;;;;;3.60;3.30;;;;;;;;;;6225371;23;20164;-80
2024/02/18 08:47:15;;;;;;;4.50;3.20;;;;;;;;;;6222879;23;20180;-80
2024/02/18 08:49:43;;;;;;;4.17;3.07;;;;;;;;;;6221327;23;20172;-79
2024/02/18 08:52:10;;;;;;;3.53;3.23;;;;;;;;;;6221054;23;20185;-79
2024/02/18 08:54:37;;;;;;;3.77;3.37;;;;;;;;;;6247108;23;20161;-79
2024/02/18 08:57:07;;;;;;;4.00;3.60;;;;;;;;;;6248199;23;20646;-79
2024/02/18 08:59:35;;;;;;;3.60;3.30;;;;;;;;;;6221188;23;20173;-80
2024/02/18 09:02:01;;;;;;;3.60;3.30;;;;;;;;;;6247640;23;20161;-79
2024/02/18 09:04:33;;;;;;;3.90;3.50;;;;;;;;;;6220376;23;20169;-79
2024/02/18 09:07:02;;;;;;;3.97;3.57;;;;;;;;;;6247388;23;20167;-79
2024/02/18 09:09:32;;;;;;;4.00;3.23;;;;;;;;;;6248672;23;20149;-80
2024/02/18 09:12:00;;;;;;;3.60;3.10;;;;;;;;;;6247842;23;20204;-78
2024/02/18 09:14:27;;;;;;;3.50;3.00;;;;;;;;;;6246834;23;20165;-80
2024/02/18 09:16:54;;;;;;;3.73;3.43;;;;;;;;;;6248194;23;20211;-80
2024/02/18 09:19:23;;;;;;;4.57;3.70;;;;;;;;;;6248260;23;20168;-80
2024/02/18 09:21:58;;;;;;;4.03;3.73;;;;;;;;;;6221373;23;20210;-80
2024/02/18 09:24:27;;;;;;;4.50;4.10;;;;;;;;;;6221119;23;20180;-80
2024/02/18 09:26:55;;;;;;;4.23;3.77;;;;;;;;;;6248785;23;20165;-80
2024/02/18 09:29:22;;;;;;;7.23;6.53;;;;;;;;;;6220212;23;20205;-80
2024/02/18 09:31:49;;;;;;;5.10;4.60;;;;;;;;;;6220847;23;20169;-80
2024/02/18 09:34:18;;;;;;;5.20;4.70;;;;;;;;;;6221666;23;20172;-80
2024/02/18 09:36:45;;;;;;;4.37;3.90;;;;;;;;;;6221331;23;20619;-80
2024/02/18 09:39:15;;;;;;;7.00;6.30;;;;;;;;;;6220689;23;20203;-80
2024/02/18 09:41:46;;;;;;;4.50;4.10;;;;;;;;;;6196203;23;20169;-80
2024/02/18 09:44:13;;;;;;;5.03;3.83;;;;;;;;;;6248466;23;20165;-80
2024/02/18 09:46:51;;;;;;;4.57;4.17;;;;;;;;;;6249481;23;20165;-81
2024/02/18 09:49:21;;;;;;;5.13;4.13;;;;;;;;;;6198181;23;20630;-80
2024/02/18 09:51:52;;;;;;;5.00;4.53;;;;;;;;;;6222035;23;20279;-80
2024/02/18 09:54:19;;;;;;;4.60;4.20;;;;;;;;;;6222332;23;20165;-80
2024/02/18 09:56:52;;;;;;;5.10;4.40;;;;;;;;;;6221200;23;20215;-79
2024/02/18 09:59:23;;;;;;;4.23;3.83;;;;;;;;;;6222437;23;20146;-80
2024/02/18 10:01:52;;;;;;;5.17;4.60;;;;;;;;;;6220631;23;20215;-79
2024/02/18 10:04:22;;;;;;;5.17;4.67;;;;;;;;;;6247548;23;20587;-80
2024/02/18 10:06:53;;;;;;;5.27;4.77;;;;;;;;;;6222021;23;20695;-79
2024/02/18 10:09:23;;;;;;;5.10;4.60;;;;;;;;;;6247835;23;20169;-80
2024/02/18 10:11:54;;;;;;;4.73;4.30;;;;;;;;;;6195873;23;20195;-79
2024/02/18 10:14:28;;;;;;;4.83;4.43;;;;;;;;;;6220209;23;20669;-79
2024/02/18 10:16:56;;;;;;;5.47;4.60;;;;;;;;;;6221370;23;20160;-80
2024/02/18 10:19:33;;;;;;;5.00;4.60;;;;;;;;;;6220315;23;20168;-80
2024/02/18 10:22:03;;;;;;;4.90;4.50;;;;;;;;;;6247886;23;20227;-80
2024/02/18 10:24:31;;;;;;;5.17;4.67;;;;;;;;;;6247204;23;20161;-80
2024/02/18 10:26:58;;;;;;;4.70;4.30;;;;;;;;;;6220495;23;20642;-80
2024/02/18 10:29:26;;;;;;;5.00;4.50;;;;;;;;;;6219902;23;20220;-80
2024/02/18 10:31:54;;;;;;;5.17;4.77;;;;;;;;;;6247233;23;20211;-80
2024/02/18 10:34:21;;;;;;;5.07;4.60;;;;;;;;;;6221071;23;20189;-80
2024/02/18 10:36:57;;;;;;;4.83;4.37;;;;;;;;;;6247165;23;20171;-80
2024/02/18 10:39:28;;;;;;;5.10;4.60;;;;;;;;;;6221455;23;20160;-80
2024/02/18 10:42:15;;;;;;;5.30;4.80;;;;;;;;;;6249041;23;20157;-80
2024/02/18 10:44:43;;;;;;;5.60;5.10;;;;;;;;;;6249590;23;20176;-80
2024/02/18 10:47:15;;;;;;;5.33;4.87;;;;;;;;;;6249586;23;20188;-80
2024/02/18 10:49:45;;;;;;;4.97;4.57;;;;;;;;;;6223280;23;20153;-80
2024/02/18 10:52:18;;;;;;;4.70;4.20;;;;;;;;;;6222376;23;20192;-80
2024/02/18 10:54:52;;;;;;;5.23;4.40;;;;;;;;;;6225671;23;20169;-80
2024/02/18 10:57:25;;;;;;;5.00;4.60;;;;;;;;;;6225871;23;20171;-81
2024/02/18 10:59:58;;;;;;;5.20;4.70;;;;;;;;;;6224741;23;20175;-80
2024/02/18 11:02:28;;;;;;;4.93;4.53;;;;;;;;;;6200042;23;20165;-80
2024/02/18 11:04:58;;;;;;;4.53;4.13;;;;;;;;;;6225366;23;20153;-81
2024/02/18 11:07:27;;;;;;;5.07;4.57;;;;;;;;;;6252042;23;20659;-81
2024/02/18 11:09:55;;;;;;;5.57;4.97;;;;;;;;;;6223591;23;20169;-80
2024/02/18 11:12:24;;;;;;;5.20;4.70;;;;;;;;;;6250487;23;20185;-81
2024/02/18 11:14:53;;;;;;;5.60;5.10;;;;;;;;;;6224770;23;20255;-81
2024/02/18 11:17:21;;;;;;;4.70;4.30;;;;;;;;;;6199603;23;20184;-81
2024/02/18 11:19:50;;;;;;;4.80;4.40;;;;;;;;;;6224145;23;20253;-80
2024/02/18 11:22:18;;;;;;;4.90;4.50;;;;;;;;;;6225707;23;20237;-81
2024/02/18 11:24:47;;;;;;;5.47;4.97;;;;;;;;;;6224533;23;20164;-80
2024/02/18 11:27:20;;;;;;;5.33;4.83;;;;;;;;;;6250906;23;20160;-80
2024/02/18 11:29:47;;;;;;;5.20;4.80;;;;;;;;;;6223233;23;20320;-81
2024/02/18 11:32:22;;;;;;;4.63;4.20;;;;;;;;;;6227673;23;20195;-81
2024/02/18 11:34:58;;;;;;;5.13;4.60;;;;;;;;;;6230271;23;20216;-81
2024/02/18 11:37:30;;;;;;;4.93;4.53;;;;;;;;;;6203215;23;20193;-81
2024/02/18 11:39:59;;;;;;;5.17;4.67;;;;;;;;;;6230047;23;20197;-81
2024/02/18 11:42:28;;;;;;;5.37;4.93;;;;;;;;;;6230938;23;20192;-81
2024/02/18 11:45:23;;;;;;;5.43;5.03;;;;;;;;;;6230204;23;20181;-81
2024/02/18 11:47:54;;;;;;;5.53;5.13;;;;;;;;;;6216438;23;20607;-82
2024/02/18 11:50:24;;;;;;;5.47;5.03;;;;;;;;;;6206781;23;20192;-82
2024/02/18 11:53:04;;;;;;;5.50;5.00;;;;;;;;;;6258480;23;20189;-82
2024/02/18 11:55:33;;;;;;;5.30;4.80;;;;;;;;;;6260213;23;20169;-82
2024/02/18 11:58:04;;;;;;;5.50;5.00;;;;;;;;;;6233960;23;20168;-81
2024/02/18 12:00:34;;;;;;;5.40;4.90;;;;;;;;;;6225411;23;20166;-80
2024/02/18 12:03:03;;;;;;;5.10;4.70;;;;;;;;;;6248023;23;20216;-80
2024/02/18 12:05:30;;;;;;;5.10;4.60;;;;;;;;;;6196535;23;20172;-80
2024/02/18 12:07:59;;;;;;;5.13;4.63;;;;;;;;;;6197257;23;20609;-80
2024/02/18 12:10:28;;;;;;;4.67;4.27;;;;;;;;;;6248312;23;20269;-80
2024/02/18 12:12:58;;;;;;;5.23;4.73;;;;;;;;;;6221347;23;20208;-80
2024/02/18 12:15:27;;;;;;;4.83;4.43;;;;;;;;;;6248070;23;20165;-80
2024/02/18 12:17:55;;;;;;;4.70;4.30;;;;;;;;;;6245601;23;20191;-80
2024/02/18 12:20:22;;;;;;;4.97;4.47;;;;;;;;;;6218228;23;20240;-80
2024/02/18 12:22:56;;;;;;;4.77;4.37;;;;;;;;;;6249463;23;20163;-80
2024/02/18 12:25:46;;;;;;;4.80;4.40;;;;;;;;;;6223165;23;20166;-80
2024/02/18 12:28:14;;;;;;;4.70;4.30;;;;;;;;;;6223346;23;20174;-79
2024/02/18 12:30:47;;;;;;;4.50;4.10;;;;;;;;;;6222810;23;20280;-80
2024/02/18 12:33:14;;;;;;;5.17;4.77;;;;;;;;;;6249793;23;20175;-81
2024/02/18 12:35:42;;;;;;;5.13;4.67;;;;;;;;;;6223280;23;20250;-80
2024/02/18 12:38:09;;;;;;;5.10;4.63;;;;;;;;;;6223284;23;20627;-80
2024/02/18 12:40:40;;;;;;;4.73;4.33;;;;;;;;;;6223345;23;20170;-80
2024/02/18 12:43:11;;;;;;;5.00;4.60;;;;;;;;;;6198543;23;20634;-81
2024/02/18 12:46:01;;;;;;;6.30;5.03;;;;;;;;;;6223168;23;20164;-80
2024/02/18 12:48:37;;;;;;;4.83;4.43;;;;;;;;;;6249936;23;20230;-82
2024/02/18 12:51:13;;;;;;;5.10;4.70;;;;;;;;;;6222684;23;20181;-80
2024/02/18 12:53:44;;;;;;;5.30;4.80;;;;;;;;;;6222584;23;20195;-80
2024/02/18 12:56:12;;;;;;;5.87;5.37;;;;;;;;;;6222594;23;20184;-80
2024/02/18 12:58:39;;;;;;;5.30;4.83;;;;;;;;;;6248976;23;20166;-80
2024/02/18 13:01:09;;;;;;;5.53;5.10;;;;;;;;;;6249600;23;20170;-80
2024/02/18 13:03:37;;;;;;;5.17;4.77;;;;;;;;;;6222211;23;20182;-80
2024/02/18 13:06:16;;;;;;;5.10;4.70;;;;;;;;;;6249899;23;20146;-80
2024/02/18 13:08:43;;;;;;;5.50;5.00;;;;;;;;;;6223088;23;20176;-80
2024/02/18 13:11:18;;;;;;;5.47;4.97;;;;;;;;;;6222762;23;20202;-81
2024/02/18 13:13:48;;;;;;;5.40;4.80;;;;;;;;;;6223676;23;20655;-80
2024/02/18 13:16:14;;;;;;;5.73;5.23;;;;;;;;;;6198832;23;20200;-80
2024/02/18 13:18:42;;;;;;;5.33;4.83;;;;;;;;;;6198270;23;20174;-80
2024/02/18 13:21:12;;;;;;;5.47;4.90;;;;;;;;;;6250183;23;20205;-80
2024/02/18 13:23:42;;;;;;;5.07;4.57;;;;;;;;;;6224290;23;20266;-81
2024/02/18 13:26:23;;;;;;;4.93;4.53;;;;;;;;;;6250823;23;20201;-80
2024/02/18 13:28:57;;;;;;;5.37;4.73;;;;;;;;;;6247725;22;20647;-80
2024/02/18 13:31:25;;;;;;;5.10;4.70;;;;;;;;;;6190745;23;20171;-80
2024/02/18 13:34:07;;;;;;;6.37;5.17;;;;;;;;;;6220145;23;20178;-80
2024/02/18 13:36:41;;;;;;;5.03;4.63;;;;;;;;;;6219401;23;20255;-80
2024/02/18 13:39:15;;;;;;;6.20;5.33;;;;;;;;;;6220027;23;20140;-80
2024/02/18 13:41:45;;;;;;;5.73;5.10;;;;;;;;;;6219875;23;20148;-80
2024/02/18 13:44:13;;;;;;;5.47;4.87;;;;;;;;;;6219743;23;20598;-80
2024/02/18 13:46:42;;;;;;;5.73;5.20;;;;;;;;;;6193921;23;20189;-80
2024/02/18 13:49:21;;;;;;;5.43;4.97;;;;;;;;;;6192751;23;20182;-80
2024/02/18 13:51:54;;;;;;;5.37;4.87;;;;;;;;;;6218700;23;20154;-80
2024/02/18 13:54:24;;;;;;;5.53;5.07;;;;;;;;;;6219525;23;20215;-80
2024/02/18 13:56:53;;;;;;;5.17;4.77;;;;;;;;;;6172311;23;20172;-81
2024/02/18 13:59:22;;;;;;;5.70;5.20;;;;;;;;;;6197291;23;20184;-81
2024/02/18 14:01:53;;;;;;;5.47;4.97;;;;;;;;;;6194982;23;20173;-81
2024/02/18 14:04:34;;;;;;;5.40;4.90;;;;;;;;;;6173182;23;20163;-81
2024/02/18 14:07:11;;;;;;;5.50;5.00;;;;;;;;;;6172600;23;20190;-80
2024/02/18 14:09:42;;;;;;;5.33;4.93;;;;;;;;;;6172074;23;20163;-80
2024/02/18 14:12:14;;;;;;;5.60;5.10;;;;;;;;;;6195947;23;20163;-80
2024/02/18 14:14:48;;;;;;;8.87;6.70;;;;;;;;;;6194934;23;20234;-81
2024/02/18 14:17:20;;;;;;;9.33;8.33;;;;;;;;;;6193930;23;20175;-80
2024/02/18 14:20:00;;;;;;;5.57;5.10;;;;;;;;;;6195990;23;20238;-80
2024/02/18 14:22:29;;;;;;;5.23;4.73;;;;;;;;;;6191539;23;20192;-80
2024/02/18 14:24:57;;;;;;;5.90;5.40;;;;;;;;;;6218479;23;20163;-80
2024/02/18 14:27:26;;;;;;;5.20;4.80;;;;;;;;;;6219714;23;20145;-80
2024/02/18 14:29:57;;;;;;;5.60;5.00;;;;;;;;;;6210504;23;20191;-79
2024/02/18 14:32:30;;;;;;;5.23;4.83;;;;;;;;;;6250386;23;20159;-79
2024/02/18 14:34:58;;;;;;;5.10;4.60;;;;;;;;;;6224014;23;20191;-80
2024/02/18 14:37:26;;;;;;;6.00;5.37;;;;;;;;;;6223152;23;20166;-80
2024/02/18 14:39:54;;;;;;;5.97;5.37;;;;;;;;;;6222853;23;20163;-80
2024/02/18 14:42:22;;;;;;;5.53;5.03;;;;;;;;;;6249336;23;20170;-79
2024/02/18 14:44:54;;;;;;;5.87;5.37;;;;;;;;;;6249805;23;20175;-80
2024/02/18 14:47:30;;;;;;;6.20;5.60;;;;;;;;;;6200817;23;20173;-80
2024/02/18 14:50:01;;;;;;;6.00;5.40;;;;;;;;;;6222991;23;20181;-80
2024/02/18 14:52:31;;;;;;;5.80;5.20;;;;;;;;;;6222568;23;20194;-80
2024/02/18 14:55:03;;;;;;;5.70;5.20;;;;;;;;;;6249545;23;20189;-79
2024/02/18 14:57:30;;;;;;;5.83;5.30;;;;;;;;;;6249728;23;20164;-78
2024/02/18 15:00:02;;;;;;;5.53;5.03;;;;;;;;;;6249539;23;20175;-80